Time;durP1;ratioP1;P1;durP2;ratioP2;P2;SDS_P1;SDS_P2;PMS_P1;PMS_P2;Temp;Humidity;BMP_temperature;BMP_pressure;BME280_temperature;BME280_humidity;BME280_pressure;Samples;Min_cycle;Max_cycle;Signal;HPM_P1;HPM_P2
2022/05/06 00:01:51;;;;;;;16.55;10.32;;;11.00;92.20;;;;;;5114286;28;20039;-45
2022/05/06 00:04:17;;;;;;;13.25;9.43;;;11.00;92.10;;;;;;5103616;28;20035;-55
2022/05/06 00:06:42;;;;;;;16.55;10.38;;;11.00;92.00;;;;;;5092480;28;20032;-44
2022/05/06 00:09:08;;;;;;;16.38;10.70;;;11.00;91.90;;;;;;5093289;28;20572;-51
2022/05/06 00:11:34;;;;;;;14.65;8.55;;;11.00;91.90;;;;;;5093867;28;20024;-47
2022/05/06 00:14:00;;;;;;;19.52;11.27;;;11.00;91.80;;;;;;5101481;28;20072;-45
2022/05/06 00:16:27;;;;;;;14.40;9.38;;;11.00;91.90;;;;;;5114094;28;20055;-55
2022/05/06 00:18:54;;;;;;;16.70;10.90;;;11.00;92.10;;;;;;5114023;28;20016;-44
2022/05/06 00:21:20;;;;;;;14.90;10.90;;;11.00;91.80;;;;;;5114009;28;20514;-47
2022/05/06 00:23:45;;;;;;;13.70;9.85;;;11.00;91.90;;;;;;5108279;28;20020;-42
2022/05/06 00:26:12;;;;;;;17.35;10.63;;;11.00;92.20;;;;;;5093501;28;20024;-45
2022/05/06 00:28:38;;;;;;;15.60;10.27;;;11.00;92.50;;;;;;5093286;28;20024;-43
2022/05/06 00:31:04;;;;;;;15.07;9.77;;;11.00;92.10;;;;;;5093161;28;20422;-58
2022/05/06 00:33:30;;;;;;;11.43;8.73;;;10.90;91.80;;;;;;5096138;28;20467;-53
2022/05/06 00:35:58;;;;;;;13.65;8.15;;;10.90;91.50;;;;;;5113444;28;20466;-57
2022/05/06 00:38:24;;;;;;;12.32;8.10;;;10.80;91.80;;;;;;5113478;28;20016;-57
2022/05/06 00:40:51;;;;;;;11.57;7.82;;;10.80;91.40;;;;;;5113384;28;20069;-58
2022/05/06 00:43:18;;;;;;;10.95;7.47;;;10.80;91.30;;;;;;5112256;28;20023;-55
2022/05/06 00:45:55;;;;;;;17.20;8.68;;;10.80;91.10;;;;;;5093008;28;20527;-39
2022/05/06 00:48:26;;;;;;;11.20;7.97;;;10.70;91.10;;;;;;5092820;28;20031;-54
2022/05/06 00:50:53;;;;;;;11.20;7.50;;;10.60;91.20;;;;;;5093006;28;20055;-56
2022/05/06 00:53:19;;;;;;;11.73;7.45;;;10.60;91.30;;;;;;5093631;28;20472;-48
2022/05/06 00:55:45;;;;;;;11.15;7.63;;;10.60;91.40;;;;;;5113140;28;20035;-46
2022/05/06 00:58:11;;;;;;;10.85;7.07;;;10.60;91.20;;;;;;5113184;28;20052;-55
2022/05/06 01:00:37;;;;;;;14.75;8.40;;;10.60;91.20;;;;;;5112998;28;20460;-46
2022/05/06 01:03:03;;;;;;;12.23;8.00;;;10.50;91.20;;;;;;5113095;27;20464;-56
2022/05/06 01:05:30;;;;;;;13.05;8.20;;;10.50;91.20;;;;;;5093745;28;20104;-41
2022/05/06 01:07:58;;;;;;;13.75;7.80;;;10.50;91.20;;;;;;5091435;28;20028;-41
2022/05/06 01:10:24;;;;;;;13.55;7.97;;;10.40;91.20;;;;;;5092639;28;20039;-38
2022/05/06 01:12:50;;;;;;;13.20;7.90;;;10.40;91.30;;;;;;5091349;28;20020;-42
2022/05/06 01:15:27;;;;;;;14.18;9.55;;;10.40;91.60;;;;;;5109053;28;20026;-55
2022/05/06 01:17:55;;;;;;;15.15;9.10;;;10.40;91.90;;;;;;5112678;28;20028;-57
2022/05/06 01:20:22;;;;;;;14.23;9.95;;;10.40;92.10;;;;;;5111850;28;20059;-55
2022/05/06 01:22:50;;;;;;;12.50;8.80;;;10.40;92.20;;;;;;5112703;28;20035;-58
2022/05/06 01:25:17;;;;;;;13.25;8.70;;;10.40;92.30;;;;;;5095757;28;20020;-52
2022/05/06 01:28:04;;;;;;;15.35;9.25;;;10.50;92.50;;;;;;5092133;28;20535;-57
2022/05/06 01:30:38;;;;;;;15.18;9.05;;;10.50;92.30;;;;;;5091822;28;20048;-51
2022/05/06 01:33:15;;;;;;;13.80;8.40;;;10.50;92.20;;;;;;5092275;28;20027;-48
2022/05/06 01:35:42;;;;;;;11.95;9.18;;;10.50;92.20;;;;;;5091974;28;20035;-54
2022/05/06 01:38:10;;;;;;;12.02;8.90;;;10.50;92.50;;;;;;5091909;28;20020;-53
2022/05/06 01:40:42;;;;;;;14.77;9.07;;;10.50;92.10;;;;;;5090757;28;20097;-53
2022/05/06 01:43:13;;;;;;;14.27;9.65;;;10.50;91.80;;;;;;5091811;28;20388;-42
2022/05/06 01:45:40;;;;;;;11.93;7.53;;;10.50;91.60;;;;;;5110846;28;20024;-55
2022/05/06 01:48:07;;;;;;;12.63;8.38;;;10.50;91.70;;;;;;5112160;28;20023;-53
2022/05/06 01:50:39;;;;;;;12.20;8.25;;;10.40;91.60;;;;;;5111946;28;20540;-52
2022/05/06 01:53:08;;;;;;;11.98;8.63;;;10.40;91.60;;;;;;5112118;28;20030;-51
2022/05/06 01:55:33;;;;;;;14.35;8.23;;;10.30;91.50;;;;;;5110589;28;20027;-52
2022/05/06 01:57:59;;;;;;;15.23;8.18;;;10.30;91.50;;;;;;5111959;28;20176;-55
2022/05/06 02:00:25;;;;;;;11.90;7.97;;;10.30;91.50;;;;;;5112020;28;20023;-49
2022/05/06 02:02:51;;;;;;;13.15;7.65;;;10.20;91.40;;;;;;5110599;28;20016;-44
2022/05/06 02:05:17;;;;;;;14.50;8.65;;;10.10;91.30;;;;;;5097086;28;20387;-50
2022/05/06 02:07:51;;;;;;;11.35;8.23;;;10.10;91.30;;;;;;5091477;28;20032;-50
2022/05/06 02:10:18;;;;;;;11.10;7.72;;;10.10;91.40;;;;;;5091438;28;20044;-50
2022/05/06 02:12:45;;;;;;;11.75;7.82;;;10.00;91.40;;;;;;5092537;28;20024;-49
2022/05/06 02:15:11;;;;;;;10.45;7.88;;;10.00;91.40;;;;;;5091485;28;20069;-51
2022/05/06 02:17:39;;;;;;;13.02;8.45;;;9.90;91.70;;;;;;5091381;28;20387;-51
2022/05/06 02:20:06;;;;;;;13.48;8.50;;;9.90;91.90;;;;;;5091315;28;20016;-58
2022/05/06 02:22:36;;;;;;;15.02;8.10;;;9.90;91.90;;;;;;5106328;28;20069;-58
2022/05/06 02:25:04;;;;;;;13.73;8.02;;;9.90;92.00;;;;;;5111585;28;20028;-57
2022/05/06 02:27:30;;;;;;;12.25;8.75;;;9.90;92.10;;;;;;5111646;28;20024;-42
2022/05/06 02:35:25;;;;;;;11.70;8.02;;;9.90;92.00;;;;;;5091576;28;20039;-48
2022/05/06 02:37:51;;;;;;;11.63;8.35;;;9.90;92.00;;;;;;5091254;28;20024;-50
2022/05/06 02:40:17;;;;;;;16.48;9.05;;;9.90;92.00;;;;;;5091194;28;20036;-42
2022/05/06 02:42:43;;;;;;;11.55;8.02;;;9.90;92.10;;;;;;5107212;28;20480;-48
2022/05/06 02:45:10;;;;;;;13.45;8.32;;;9.80;92.00;;;;;;5111443;28;20102;-42
2022/05/06 02:47:36;;;;;;;13.02;8.60;;;9.80;92.00;;;;;;5111598;28;20073;-58
2022/05/06 02:50:03;;;;;;;11.02;7.90;;;9.80;92.00;;;;;;5111497;28;20039;-58
2022/05/06 02:52:28;;;;;;;10.20;6.82;;;9.80;91.80;;;;;;5096835;28;20529;-46
2022/05/06 02:54:54;;;;;;;13.13;7.55;;;9.70;91.80;;;;;;5079594;28;20029;-54
2022/05/06 02:57:19;;;;;;;13.35;8.15;;;9.70;91.80;;;;;;5069564;28;20024;-46
2022/05/06 02:59:45;;;;;;;10.05;7.47;;;9.60;92.00;;;;;;5070581;28;20381;-50
2022/05/06 03:02:11;;;;;;;11.38;7.63;;;9.60;92.10;;;;;;5094038;28;20380;-49
2022/05/06 03:04:36;;;;;;;12.68;8.20;;;9.60;92.00;;;;;;5111333;28;20078;-52
2022/05/06 03:07:06;;;;;;;9.85;6.88;;;9.60;92.00;;;;;;5111377;28;20028;-53
2022/05/06 03:09:33;;;;;;;11.65;6.97;;;9.60;91.80;;;;;;5111232;28;20468;-51
2022/05/06 03:11:59;;;;;;;11.45;7.47;;;9.50;91.60;;;;;;5100037;28;20036;-55
2022/05/06 03:14:25;;;;;;;10.75;7.38;;;9.50;91.70;;;;;;5090978;28;20027;-56
2022/05/06 03:16:50;;;;;;;14.02;8.02;;;9.50;91.90;;;;;;5090781;28;20491;-49
2022/05/06 03:19:16;;;;;;;11.88;8.73;;;9.50;92.10;;;;;;5090820;28;20028;-47
2022/05/06 03:21:45;;;;;;;10.93;7.50;;;9.50;92.20;;;;;;5093482;28;20029;-57
2022/05/06 03:24:11;;;;;;;11.27;7.95;;;9.50;92.20;;;;;;5090667;28;20028;-47
2022/05/06 03:26:37;;;;;;;9.70;7.20;;;9.50;92.00;;;;;;5089322;28;20020;-49
2022/05/06 03:29:03;;;;;;;13.07;7.47;;;9.50;92.10;;;;;;5090820;28;20032;-57
2022/05/06 03:31:28;;;;;;;11.57;8.23;;;9.50;92.10;;;;;;5095234;28;20439;-55
2022/05/06 03:33:54;;;;;;;9.50;7.00;;;9.50;92.10;;;;;;5110963;28;20047;-53
2022/05/06 03:36:21;;;;;;;11.60;7.00;;;9.40;92.00;;;;;;5095853;28;20028;-50
2022/05/06 03:38:47;;;;;;;8.98;7.15;;;9.40;91.90;;;;;;5091119;28;20047;-55
2022/05/06 03:41:12;;;;;;;13.90;8.52;;;9.40;92.00;;;;;;5089141;28;20457;-58
2022/05/06 03:43:40;;;;;;;12.68;7.43;;;9.30;92.20;;;;;;5092490;28;20028;-53
2022/05/06 03:46:05;;;;;;;11.13;7.57;;;9.30;92.40;;;;;;5092620;28;20030;-53
2022/05/06 03:48:33;;;;;;;11.23;7.60;;;9.20;92.40;;;;;;5095135;28;20099;-50
2022/05/06 03:53:43;;;;;;;10.10;7.00;;;9.20;92.20;;;;;;5114248;28;20062;-54
2022/05/06 03:56:09;;;;;;;10.07;6.90;;;9.20;92.10;;;;;;5114262;28;20063;-52
2022/05/06 03:58:34;;;;;;;8.82;6.80;;;9.10;92.10;;;;;;5114222;28;20022;-52
2022/05/06 04:01:00;;;;;;;9.35;6.55;;;9.10;92.00;;;;;;5110722;28;20023;-50
2022/05/06 04:03:26;;;;;;;9.73;6.78;;;9.00;92.20;;;;;;5114130;28;20035;-54
2022/05/06 04:05:52;;;;;;;10.25;6.97;;;9.00;92.00;;;;;;5114141;27;20024;-53
2022/05/06 04:08:18;;;;;;;10.10;7.22;;;9.00;92.10;;;;;;5114084;28;20483;-47
2022/05/06 04:10:44;;;;;;;9.82;7.03;;;9.00;92.20;;;;;;5112479;28;20084;-45
2022/05/06 04:13:10;;;;;;;9.90;7.28;;;9.00;92.10;;;;;;5093771;28;20027;-60
2022/05/06 04:15:38;;;;;;;11.68;7.20;;;8.90;92.20;;;;;;5093541;28;20051;-55
2022/05/06 04:18:04;;;;;;;11.75;7.38;;;8.90;92.40;;;;;;5093690;28;20020;-58
2022/05/06 04:23:29;;;;;;;12.45;7.38;;;9.00;92.90;;;;;;5079569;28;20043;-58
2022/05/06 04:26:01;;;;;;;14.32;7.60;;;9.10;92.50;;;;;;5093484;28;20046;-55
2022/05/06 04:28:28;;;;;;;11.75;7.75;;;9.00;92.30;;;;;;5093443;28;20025;-53
2022/05/06 04:30:54;;;;;;;8.65;6.43;;;9.00;92.40;;;;;;5095462;28;20047;-53
2022/05/06 04:33:21;;;;;;;9.48;6.38;;;9.00;92.20;;;;;;5113552;28;20099;-59
2022/05/06 04:35:48;;;;;;;10.70;6.60;;;9.00;91.80;;;;;;5113419;28;20444;-54
2022/05/06 04:38:13;;;;;;;11.93;7.55;;;8.90;92.00;;;;;;5113520;28;20091;-53
2022/05/06 04:40:42;;;;;;;14.38;7.18;;;9.00;92.10;;;;;;5112898;28;20043;-41
2022/05/06 04:43:09;;;;;;;10.03;7.23;;;9.00;92.40;;;;;;5093095;28;20074;-52
2022/05/06 04:45:37;;;;;;;14.55;8.75;;;9.00;92.40;;;;;;5093006;28;20028;-45
2022/05/06 04:48:04;;;;;;;23.55;10.20;;;9.00;93.00;;;;;;5092724;28;20107;-58
2022/05/06 04:50:30;;;;;;;25.40;10.18;;;9.00;92.90;;;;;;5092773;28;20102;-51
2022/05/06 04:52:55;;;;;;;23.85;11.98;;;9.10;93.20;;;;;;5111972;28;20027;-54
2022/05/06 04:55:21;;;;;;;29.05;12.40;;;9.10;93.40;;;;;;5113051;28;20096;-58
2022/05/06 04:57:47;;;;;;;33.28;13.48;;;9.20;93.40;;;;;;5113158;28;20044;-57
2022/05/06 05:00:13;;;;;;;29.48;14.15;;;9.20;93.60;;;;;;5113101;28;20028;-52
2022/05/06 05:02:38;;;;;;;53.80;14.38;;;9.20;93.80;;;;;;5096083;28;20468;-56
2022/05/06 05:05:04;;;;;;;65.68;15.95;;;9.30;93.90;;;;;;5092818;28;20032;-57
2022/05/06 05:07:30;;;;;;;24.52;13.43;;;9.40;94.00;;;;;;5092518;28;20028;-59
2022/05/06 05:09:56;;;;;;;29.60;14.20;;;9.40;94.30;;;;;;5092555;28;20042;-54
2022/05/06 05:12:24;;;;;;;79.50;15.88;;;9.50;94.30;;;;;;5089945;28;20089;-49
2022/05/06 05:14:51;;;;;;;29.60;14.55;;;9.60;94.00;;;;;;5083156;28;20020;-47
2022/05/06 05:17:17;;;;;;;24.38;13.82;;;9.60;93.90;;;;;;5076797;28;20056;-45
2022/05/06 05:19:43;;;;;;;24.08;14.05;;;9.70;93.80;;;;;;5083230;28;20027;-42
2022/05/06 05:22:09;;;;;;;29.48;14.60;;;9.80;93.50;;;;;;5085938;28;20032;-52
2022/05/06 05:24:35;;;;;;;27.17;14.45;;;9.90;93.50;;;;;;5080405;28;20051;-51
2022/05/06 05:27:02;;;;;;;26.27;13.40;;;9.90;93.30;;;;;;5090435;28;20390;-57
2022/05/06 05:29:28;;;;;;;26.65;13.45;;;10.00;93.10;;;;;;5091958;28;20028;-46
2022/05/06 05:31:54;;;;;;;21.23;12.07;;;10.00;92.90;;;;;;5101883;28;20058;-54
2022/05/06 05:34:20;;;;;;;22.52;12.07;;;10.20;92.90;;;;;;5112133;28;20108;-54
2022/05/06 05:36:45;;;;;;;19.60;10.45;;;10.30;92.40;;;;;;5111107;28;20083;-56
2022/05/06 05:39:11;;;;;;;17.40;10.10;;;10.40;92.10;;;;;;5109080;28;20149;-50
2022/05/06 05:41:38;;;;;;;18.92;9.75;;;10.50;91.80;;;;;;5093407;28;20035;-49
2022/05/06 05:49:32;;;;;;;20.42;10.82;;;10.80;91.50;;;;;;5071485;28;20052;-54
2022/05/06 05:51:58;;;;;;;21.75;9.80;;;11.10;91.10;;;;;;5097414;28;20023;-45
2022/05/06 05:54:24;;;;;;;19.15;9.90;;;11.60;90.60;;;;;;5111688;28;20028;-49
2022/05/06 05:56:50;;;;;;;17.55;9.63;;;12.20;88.50;;;;;;5105686;28;20051;-47
2022/05/06 05:59:15;;;;;;;18.17;9.50;;;12.90;86.20;;;;;;5068817;28;20031;-52
2022/05/06 06:01:41;;;;;;;17.25;9.57;;;13.70;82.80;;;;;;5072383;28;20024;-51
2022/05/06 06:04:07;;;;;;;20.85;10.60;;;14.50;80.40;;;;;;5070118;28;20162;-49
2022/05/06 06:06:32;;;;;;;16.92;10.15;;;15.20;76.50;;;;;;5078015;28;20093;-40
2022/05/06 06:08:58;;;;;;;17.08;9.15;;;15.60;71.60;;;;;;5090190;28;20027;-54
2022/05/06 06:11:23;;;;;;;15.75;10.07;;;15.80;71.90;;;;;;5096085;28;20564;-52
2022/05/06 06:13:49;;;;;;;14.60;9.52;;;16.10;70.00;;;;;;5111898;28;20027;-45
2022/05/06 06:16:17;;;;;;;13.88;9.60;;;16.80;70.00;;;;;;5084821;28;20119;-41
2022/05/06 06:18:43;;;;;;;15.00;9.60;;;17.30;67.50;;;;;;5089588;28;20512;-47
2022/05/06 06:21:08;;;;;;;17.00;10.05;;;18.00;64.90;;;;;;5092174;28;20539;-55
2022/05/06 06:23:34;;;;;;;13.40;9.55;;;18.60;63.60;;;;;;5111456;28;20111;-50
2022/05/06 06:26:00;;;;;;;15.25;9.55;;;19.20;60.40;;;;;;5111529;28;20356;-52
2022/05/06 06:28:25;;;;;;;12.52;8.18;;;19.80;59.80;;;;;;5111508;28;20094;-57
2022/05/06 06:30:51;;;;;;;10.45;7.30;;;20.30;57.00;;;;;;5110943;28;20100;-43
2022/05/06 06:33:17;;;;;;;14.48;8.70;;;20.50;56.90;;;;;;5090483;28;20024;-57
2022/05/06 06:35:43;;;;;;;14.32;7.78;;;21.00;56.40;;;;;;5089371;28;20032;-51
2022/05/06 06:38:09;;;;;;;9.73;6.82;;;21.20;54.30;;;;;;5089656;28;20065;-50
2022/05/06 06:40:35;;;;;;;10.77;7.70;;;21.20;54.80;;;;;;5090502;28;20032;-44
2022/05/06 06:43:02;;;;;;;10.88;8.48;;;21.30;53.60;;;;;;5108733;28;20098;-42
2022/05/06 06:45:28;;;;;;;13.20;8.52;;;21.30;53.10;;;;;;5110743;28;20028;-52
2022/05/06 06:47:54;;;;;;;12.95;8.32;;;21.30;55.10;;;;;;5110989;28;20499;-40
2022/05/06 06:50:20;;;;;;;15.40;9.88;;;21.50;55.60;;;;;;5110582;28;20419;-58
2022/05/06 06:52:46;;;;;;;11.68;8.55;;;21.60;56.20;;;;;;5106466;28;20101;-46
2022/05/06 06:55:12;;;;;;;14.77;9.60;;;21.90;56.50;;;;;;5111122;28;20605;-47
2022/05/06 06:57:38;;;;;;;14.68;10.30;;;22.20;54.40;;;;;;5111474;28;20111;-47
2022/05/06 07:00:05;;;;;;;12.35;8.80;;;22.70;54.90;;;;;;5111461;28;20034;-55
2022/05/06 07:02:31;;;;;;;13.45;8.65;;;23.10;53.40;;;;;;5097367;28;20030;-59
2022/05/06 07:04:58;;;;;;;13.30;9.18;;;23.10;51.80;;;;;;5090641;28;20028;-48
2022/05/06 07:12:53;;;;;;;11.85;8.32;;;23.70;51.40;;;;;;5107001;28;20169;-53
2022/05/06 07:15:18;;;;;;;15.23;8.25;;;24.10;49.40;;;;;;5110915;28;20068;-53
2022/05/06 07:17:45;;;;;;;10.32;8.02;;;24.30;49.60;;;;;;5105124;28;20334;-50
2022/05/06 07:20:11;;;;;;;12.60;8.30;;;24.40;49.90;;;;;;5094481;28;20536;-53
2022/05/06 07:22:36;;;;;;;12.45;8.00;;;24.50;48.10;;;;;;5083611;28;20265;-49
2022/05/06 07:25:02;;;;;;;11.88;8.02;;;24.60;47.90;;;;;;5086329;28;20031;-56
2022/05/06 07:27:29;;;;;;;12.52;8.60;;;24.90;47.90;;;;;;5092966;28;20020;-50
2022/05/06 07:29:55;;;;;;;13.05;7.93;;;25.10;45.60;;;;;;5093117;28;20496;-41
2022/05/06 07:32:20;;;;;;;12.57;8.55;;;25.10;47.40;;;;;;5094553;28;20031;-54
2022/05/06 07:34:46;;;;;;;13.00;8.63;;;25.10;46.40;;;;;;5093967;28;20438;-48
2022/05/06 07:37:12;;;;;;;13.77;7.32;;;25.40;47.60;;;;;;5091399;28;20028;-48
2022/05/06 07:39:38;;;;;;;12.73;7.28;;;25.80;47.30;;;;;;5093469;28;20426;-43
2022/05/06 07:42:03;;;;;;;10.80;7.43;;;26.10;45.20;;;;;;5094426;28;20373;-46
2022/05/06 07:44:29;;;;;;;14.48;7.28;;;26.40;44.70;;;;;;5082619;28;20035;-60
2022/05/06 07:46:55;;;;;;;11.38;7.30;;;26.70;46.00;;;;;;5073380;28;20029;-45
2022/05/06 07:49:20;;;;;;;14.13;7.32;;;26.70;45.50;;;;;;5073602;28;20055;-53
2022/05/06 07:51:46;;;;;;;10.02;7.53;;;26.70;43.30;;;;;;5084176;28;20062;-42
2022/05/06 07:54:12;;;;;;;12.65;8.60;;;27.10;42.70;;;;;;5092015;28;20779;-47
2022/05/06 07:56:38;;;;;;;12.82;7.88;;;27.20;45.50;;;;;;5093782;28;20414;-47
2022/05/06 07:59:04;;;;;;;8.98;7.25;;;27.40;42.40;;;;;;5093284;28;20027;-53
2022/05/06 08:06:59;;;;;;;10.27;6.93;;;27.40;42.90;;;;;;5073218;28;20032;-43
2022/05/06 08:09:24;;;;;;;9.77;7.18;;;27.60;44.10;;;;;;5074580;28;20021;-55
2022/05/06 08:11:51;;;;;;;10.57;7.63;;;27.80;44.90;;;;;;5099031;28;20403;-51
2022/05/06 08:14:18;;;;;;;11.02;7.20;;;27.90;42.50;;;;;;5113602;28;20107;-42
2022/05/06 08:16:48;;;;;;;13.63;7.10;;;27.60;42.60;;;;;;5113985;28;20421;-56
2022/05/06 08:19:13;;;;;;;11.40;7.28;;;27.60;44.70;;;;;;5113997;28;20063;-50
2022/05/06 08:21:40;;;;;;;9.55;6.70;;;27.90;43.30;;;;;;5112061;28;20055;-50
2022/05/06 08:24:06;;;;;;;11.38;6.85;;;27.90;43.90;;;;;;5113894;28;20040;-55
2022/05/06 08:26:32;;;;;;;9.27;6.90;;;28.10;44.00;;;;;;5113432;28;20024;-52
2022/05/06 08:28:58;;;;;;;11.98;7.35;;;28.00;44.10;;;;;;5112964;28;20437;-44
2022/05/06 08:31:24;;;;;;;10.93;6.85;;;28.00;42.60;;;;;;5111314;28;20219;-61
2022/05/06 08:33:50;;;;;;;11.52;6.97;;;28.30;43.20;;;;;;5091984;28;20028;-48
2022/05/06 08:36:15;;;;;;;12.68;8.98;;;28.60;41.90;;;;;;5093289;28;20032;-54
2022/05/06 08:38:43;;;;;;;11.90;7.15;;;28.70;43.20;;;;;;5093219;28;20073;-57
2022/05/06 08:41:10;;;;;;;10.38;7.15;;;29.20;41.00;;;;;;5092972;28;20034;-53
2022/05/06 08:43:37;;;;;;;10.13;6.78;;;29.60;41.10;;;;;;5111914;28;20024;-57
2022/05/06 08:51:39;;;;;;;11.07;7.10;;;29.80;40.90;;;;;;5109392;28;20420;-60
2022/05/06 08:54:05;;;;;;;9.73;6.70;;;29.40;40.80;;;;;;5092369;28;20093;-58
2022/05/06 08:56:31;;;;;;;11.27;7.47;;;29.70;41.10;;;;;;5092570;28;20026;-45
2022/05/06 08:59:00;;;;;;;10.77;6.55;;;29.70;39.80;;;;;;5092472;28;20110;-39
2022/05/06 09:01:25;;;;;;;11.45;6.80;;;29.90;44.00;;;;;;5094104;28;20028;-40
2022/05/06 09:03:51;;;;;;;12.20;7.30;;;30.20;45.10;;;;;;5113497;28;20032;-42
2022/05/06 09:06:22;;;;;;;11.00;7.10;;;30.10;40.00;;;;;;5112902;28;20027;-49
2022/05/06 09:08:50;;;;;;;12.73;7.50;;;30.00;42.20;;;;;;5112956;28;20019;-53
2022/05/06 09:16:39;;;;;;;12.70;7.70;;;29.50;39.90;;;;;;5106641;28;20062;-46
2022/05/06 09:17:21;;;;;;;13.77;7.68;;;29.10;42.40;;;;;;5112717;28;20051;-58
2022/05/06 09:19:47;;;;;;;14.35;9.20;;;29.10;43.10;;;;;;5112907;28;20023;-44
2022/05/06 09:22:14;;;;;;;15.13;8.25;;;28.70;41.40;;;;;;5104501;28;20023;-45
2022/05/06 09:24:41;;;;;;;13.27;8.15;;;28.80;43.40;;;;;;5092343;28;20120;-57
2022/05/06 09:27:08;;;;;;;10.63;7.93;;;28.90;44.20;;;;;;5092325;28;20139;-48
2022/05/06 09:29:41;;;;;;;14.48;7.80;;;29.10;42.00;;;;;;5092234;28;20020;-52
2022/05/06 09:32:28;;;;;;;19.38;8.68;;;29.20;44.10;;;;;;5112661;28;20035;-58
2022/05/06 09:34:55;;;;;;;12.13;7.07;;;28.90;41.80;;;;;;5112502;28;20425;-48
2022/05/06 09:37:38;;;;;;;11.68;7.18;;;28.80;44.20;;;;;;5103272;28;20484;-46
2022/05/06 09:40:32;;;;;;;16.55;6.95;;;28.70;42.70;;;;;;5091527;28;20563;-52
2022/05/06 09:42:59;;;;;;;12.68;7.15;;;28.60;47.10;;;;;;5089820;28;20036;-58
2022/05/06 09:45:37;;;;;;;14.73;7.95;;;28.80;42.80;;;;;;5091696;28;20356;-55
2022/05/06 09:48:04;;;;;;;15.45;8.23;;;28.90;42.10;;;;;;5106042;28;20032;-52
2022/05/06 09:50:41;;;;;;;14.77;7.55;;;29.10;41.90;;;;;;5112358;28;20035;-51
2022/05/06 09:53:09;;;;;;;12.45;7.70;;;29.20;43.30;;;;;;5110840;28;20437;-51
2022/05/06 09:55:37;;;;;;;9.45;6.22;;;29.10;40.60;;;;;;5105267;28;20040;-54
2022/05/06 09:58:04;;;;;;;13.60;8.05;;;29.30;45.00;;;;;;5091741;28;20032;-55
2022/05/06 10:00:32;;;;;;;12.85;7.20;;;29.40;42.70;;;;;;5091668;28;20024;-53
2022/05/06 10:02:58;;;;;;;14.18;7.57;;;29.20;44.00;;;;;;5091770;28;20077;-57
2022/05/06 10:05:24;;;;;;;13.80;7.80;;;29.30;39.80;;;;;;5094600;28;20027;-50
2022/05/06 10:07:56;;;;;;;14.10;6.97;;;29.20;42.30;;;;;;5111661;28;20080;-45
2022/05/06 10:10:27;;;;;;;12.65;6.88;;;29.50;41.40;;;;;;5111473;28;20036;-55
2022/05/06 10:12:57;;;;;;;15.95;6.25;;;29.60;37.40;;;;;;5111655;28;20404;-53
2022/05/06 10:15:26;;;;;;;12.27;5.80;;;29.40;43.00;;;;;;5109023;28;20102;-58
2022/05/06 10:17:53;;;;;;;15.15;6.90;;;29.30;39.90;;;;;;5089818;28;20452;-43
2022/05/06 10:20:34;;;;;;;10.55;5.50;;;29.10;38.20;;;;;;5091364;28;20024;-53
2022/05/06 10:23:00;;;;;;;9.13;5.40;;;29.00;38.90;;;;;;5091330;28;20028;-55
2022/05/06 10:25:45;;;;;;;9.20;4.95;;;28.90;39.00;;;;;;5093845;28;20024;-49
2022/05/06 10:34:23;;;;;;;8.55;3.92;;;28.70;39.10;;;;;;5109273;28;20027;-41
2022/05/06 10:36:53;;;;;;;9.55;3.47;;;28.70;37.90;;;;;;5109857;28;20055;-47
2022/05/06 10:39:29;;;;;;;6.35;3.38;;;28.70;37.80;;;;;;5111383;28;20539;-47
2022/05/06 10:42:16;;;;;;;6.75;3.50;;;28.70;38.00;;;;;;5111689;28;20020;-43
2022/05/06 10:44:47;;;;;;;7.75;3.58;;;28.80;36.60;;;;;;5111441;28;20035;-44
2022/05/06 10:47:12;;;;;;;7.88;3.33;;;29.20;38.70;;;;;;5093791;28;20503;-41
2022/05/06 10:49:38;;;;;;;6.03;3.30;;;29.30;35.40;;;;;;5089709;28;20028;-55
2022/05/06 10:52:16;;;;;;;8.95;3.50;;;29.00;35.40;;;;;;5092488;28;20047;-46
2022/05/06 10:54:42;;;;;;;6.05;2.60;;;28.70;34.80;;;;;;5095297;28;20024;-56
2022/05/06 10:57:09;;;;;;;9.02;2.53;;;28.60;38.20;;;;;;5110066;28;20028;-52
2022/05/06 10:59:56;;;;;;;8.55;2.55;;;28.60;35.60;;;;;;5115778;28;20110;-46
2022/05/06 11:02:31;;;;;;;9.02;2.80;;;28.70;34.40;;;;;;5115454;28;20357;-54
2022/05/06 11:04:58;;;;;;;9.10;2.20;;;28.70;34.30;;;;;;5113982;28;20529;-53
2022/05/06 11:07:25;;;;;;;6.60;1.92;;;28.60;32.90;;;;;;5097168;28;20115;-45
2022/05/06 11:09:51;;;;;;;4.78;2.20;;;28.30;34.60;;;;;;5094972;28;20082;-49
2022/05/06 11:12:35;;;;;;;6.15;2.50;;;28.40;36.40;;;;;;5095112;28;20032;-47
2022/05/06 11:15:26;;;;;;;6.18;2.65;;;28.20;34.70;;;;;;5094883;28;20031;-44
2022/05/06 11:17:56;;;;;;;4.90;2.45;;;28.30;38.90;;;;;;5074365;28;20118;-54
2022/05/06 11:20:30;;;;;;;6.18;2.30;;;27.90;34.50;;;;;;5074276;28;20523;-50
2022/05/06 11:23:08;;;;;;;5.40;2.40;;;27.90;37.90;;;;;;5074463;28;20039;-57
2022/05/06 11:25:36;;;;;;;6.82;2.60;;;27.90;37.40;;;;;;5079279;28;20524;-53
2022/05/06 11:28:08;;;;;;;4.40;1.60;;;27.90;37.50;;;;;;5114567;28;20050;-52
2022/05/06 11:30:34;;;;;;;7.00;2.00;;;28.10;32.00;;;;;;5114730;28;20403;-49
2022/05/06 11:33:03;;;;;;;7.45;2.03;;;27.80;34.20;;;;;;5114894;28;20023;-37
2022/05/06 11:35:40;;;;;;;4.07;1.98;;;27.80;33.80;;;;;;5112942;28;20022;-46
2022/05/06 11:38:05;;;;;;;5.95;2.13;;;27.90;37.80;;;;;;5094261;28;20085;-43
2022/05/06 11:40:36;;;;;;;5.78;2.45;;;27.60;32.60;;;;;;5094209;28;20032;-56
2022/05/06 11:43:21;;;;;;;5.68;2.25;;;27.10;36.00;;;;;;5094450;28;20020;-50
2022/05/06 11:48:39;;;;;;;4.63;1.73;;;27.00;34.90;;;;;;5114331;28;20077;-51
2022/05/06 11:51:05;;;;;;;4.68;1.88;;;26.90;35.40;;;;;;5114448;28;20035;-57
2022/05/06 11:53:32;;;;;;;4.05;1.60;;;26.90;35.70;;;;;;5113051;28;20558;-51
2022/05/06 11:55:58;;;;;;;5.32;1.60;;;26.90;35.00;;;;;;5109013;28;20024;-53
2022/05/06 11:58:25;;;;;;;5.25;1.60;;;26.80;34.70;;;;;;5093994;28;20077;-55
2022/05/06 12:00:53;;;;;;;4.43;1.50;;;26.80;36.50;;;;;;5093903;28;20034;-55
2022/05/06 12:03:19;;;;;;;4.35;1.58;;;27.10;35.90;;;;;;5092956;28;20024;-54
2022/05/06 12:05:59;;;;;;;3.78;1.70;;;27.20;33.40;;;;;;5096564;28;20380;-52
2022/05/06 12:08:31;;;;;;;3.22;1.50;;;27.20;34.30;;;;;;5114163;28;20028;-49
2022/05/06 12:11:04;;;;;;;4.85;1.80;;;27.00;33.90;;;;;;5113808;28;20044;-47
2022/05/06 12:13:41;;;;;;;6.03;1.80;;;26.90;36.30;;;;;;5114113;28;20035;-49
2022/05/06 12:16:14;;;;;;;3.35;1.90;;;26.60;33.90;;;;;;5107950;28;20044;-55
2022/05/06 12:18:58;;;;;;;7.20;2.05;;;26.60;35.30;;;;;;5093609;28;20095;-54
2022/05/06 12:21:26;;;;;;;4.68;1.85;;;26.70;35.60;;;;;;5093474;28;20020;-42
2022/05/06 12:23:57;;;;;;;5.22;2.15;;;26.60;34.90;;;;;;5093350;28;20020;-54
2022/05/06 12:26:27;;;;;;;5.63;2.22;;;26.40;36.60;;;;;;5101140;28;20027;-46
2022/05/06 12:28:52;;;;;;;3.95;2.50;;;26.50;36.40;;;;;;5113886;28;20023;-52
2022/05/06 12:31:34;;;;;;;5.40;2.60;;;26.50;34.90;;;;;;5113401;28;20465;-58
2022/05/06 12:34:01;;;;;;;6.00;2.45;;;26.30;36.80;;;;;;5112676;28;20019;-52
2022/05/06 12:36:26;;;;;;;3.85;2.15;;;25.80;34.80;;;;;;5104602;28;20035;-48
2022/05/06 12:38:52;;;;;;;6.22;2.65;;;25.60;35.60;;;;;;5092957;28;20024;-51
2022/05/06 12:41:35;;;;;;;5.03;2.80;;;25.60;35.10;;;;;;5093001;28;20024;-48
2022/05/06 12:44:22;;;;;;;6.05;3.25;;;25.30;36.90;;;;;;5093087;28;20024;-47
2022/05/06 12:46:49;;;;;;;6.65;3.67;;;25.10;37.80;;;;;;5103835;28;20427;-53
2022/05/06 12:51:59;;;;;;;9.00;3.92;;;24.90;38.00;;;;;;5113556;28;20395;-48
2022/05/06 12:54:26;;;;;;;6.78;3.97;;;24.90;39.30;;;;;;5113334;28;20103;-54
2022/05/06 12:56:55;;;;;;;8.27;3.90;;;24.60;43.00;;;;;;5101592;28;20066;-48
2022/05/06 12:59:21;;;;;;;7.22;4.45;;;24.50;39.00;;;;;;5092812;28;20020;-53
2022/05/06 13:01:47;;;;;;;8.57;4.20;;;24.50;40.40;;;;;;5092690;28;20104;-52
2022/05/06 13:04:12;;;;;;;8.00;4.32;;;24.20;41.40;;;;;;5088110;28;20489;-45
2022/05/06 13:06:38;;;;;;;5.32;3.60;;;24.00;41.50;;;;;;5094929;28;20024;-48
2022/05/06 13:09:04;;;;;;;5.82;3.85;;;24.10;43.80;;;;;;5083724;28;20028;-52
2022/05/06 13:11:29;;;;;;;7.22;4.03;;;24.00;41.40;;;;;;5092084;28;20115;-49
2022/05/06 13:13:55;;;;;;;7.22;4.10;;;24.10;43.80;;;;;;5092146;28;20031;-55
2022/05/06 13:16:21;;;;;;;6.93;4.65;;;24.10;43.70;;;;;;5098646;28;20076;-45
2022/05/06 13:18:46;;;;;;;8.63;4.80;;;24.00;44.10;;;;;;5092354;28;20070;-50
2022/05/06 13:21:12;;;;;;;10.07;5.28;;;23.90;43.80;;;;;;5084904;28;20377;-54
2022/05/06 13:23:42;;;;;;;8.20;5.38;;;23.80;46.00;;;;;;5089630;28;20027;-43
2022/05/06 13:26:08;;;;;;;10.85;5.15;;;23.60;45.80;;;;;;5095525;28;20526;-46
2022/05/06 13:28:34;;;;;;;9.80;4.80;;;23.30;46.10;;;;;;5090510;28;20431;-55
2022/05/06 13:31:00;;;;;;;8.77;4.07;;;23.20;48.00;;;;;;5084991;28;20110;-50
2022/05/06 13:33:26;;;;;;;7.00;4.03;;;23.00;46.10;;;;;;5090282;28;20468;-55